sensor_id;sensor_type;location;lat;lon;timestamp;pressure;altitude;pressure_sealevel;temperature;humidity
61537;BME280;48695;53.480;-6.300;2023-02-28T00:00:04;103111.94;;;10.48;55.49
61537;BME280;48695;53.480;-6.300;2023-02-28T00:02:35;103110.19;;;10.47;55.78
61537;BME280;48695;53.480;-6.300;2023-02-28T00:05:01;103107.50;;;10.43;55.46
61537;BME280;48695;53.480;-6.300;2023-02-28T00:07:29;103097.91;;;10.40;55.72
61537;BME280;48695;53.480;-6.300;2023-02-28T00:09:55;103104.94;;;10.44;56.12
61537;BME280;48695;53.480;-6.300;2023-02-28T00:12:20;103111.94;;;10.45;55.96
61537;BME280;48695;53.480;-6.300;2023-02-28T00:14:46;103106.69;;;10.45;55.30
61537;BME280;48695;53.480;-6.300;2023-02-28T00:17:11;103112.78;;;10.44;55.54
61537;BME280;48695;53.480;-6.300;2023-02-28T00:19:37;103115.34;;;10.41;55.48
61537;BME280;48695;53.480;-6.300;2023-02-28T00:22:02;103118.84;;;10.43;55.79
61537;BME280;48695;53.480;-6.300;2023-02-28T00:24:27;103122.31;;;10.42;56.06
61537;BME280;48695;53.480;-6.300;2023-02-28T00:26:53;103118.84;;;10.43;56.01
61537;BME280;48695;53.480;-6.300;2023-02-28T00:29:18;103117.09;;;10.42;55.89
61537;BME280;48695;53.480;-6.300;2023-02-28T00:31:44;103121.44;;;10.42;56.06
61537;BME280;48695;53.480;-6.300;2023-02-28T00:34:09;103121.44;;;10.43;56.01
61537;BME280;48695;53.480;-6.300;2023-02-28T00:36:34;103116.13;;;10.37;55.43
61537;BME280;48695;53.480;-6.300;2023-02-28T00:39:00;103122.25;;;10.39;55.61
61537;BME280;48695;53.480;-6.300;2023-02-28T00:41:25;103122.25;;;10.39;55.60
61537;BME280;48695;53.480;-6.300;2023-02-28T00:43:51;103085.25;;;10.14;55.51
61537;BME280;48695;53.480;-6.300;2023-02-28T00:46:16;103065.97;;;10.06;55.07
61537;BME280;48695;53.480;-6.300;2023-02-28T00:48:42;103127.47;;;10.39;54.97
61537;BME280;48695;53.480;-6.300;2023-02-28T00:51:07;103127.47;;;10.39;55.52
61537;BME280;48695;53.480;-6.300;2023-02-28T00:53:33;103127.47;;;10.39;55.33
61537;BME280;48695;53.480;-6.300;2023-02-28T00:55:58;103125.69;;;10.35;55.20
61537;BME280;48695;53.480;-6.300;2023-02-28T00:58:24;103122.22;;;10.36;55.16
61537;BME280;48695;53.480;-6.300;2023-02-28T01:00:51;103094.00;;;10.18;55.37
61537;BME280;48695;53.480;-6.300;2023-02-28T01:03:18;103130.03;;;10.34;55.48
61537;BME280;48695;53.480;-6.300;2023-02-28T01:05:44;103129.97;;;10.33;55.67
61537;BME280;48695;53.480;-6.300;2023-02-28T01:08:10;103133.44;;;10.32;55.84
61537;BME280;48695;53.480;-6.300;2023-02-28T01:10:36;103125.63;;;10.32;55.95
61537;BME280;48695;53.480;-6.300;2023-02-28T01:13:02;103104.44;;;10.17;56.34
61537;BME280;48695;53.480;-6.300;2023-02-28T01:15:28;103104.41;;;10.15;56.24
61537;BME280;48695;53.480;-6.300;2023-02-28T01:17:54;103123.78;;;10.25;56.11
61537;BME280;48695;53.480;-6.300;2023-02-28T01:20:19;103136.06;;;10.30;55.94
61537;BME280;48695;53.480;-6.300;2023-02-28T01:22:45;103123.88;;;10.31;56.29
61537;BME280;48695;53.480;-6.300;2023-02-28T01:25:10;103124.69;;;10.28;56.43
61537;BME280;48695;53.480;-6.300;2023-02-28T01:27:36;103137.81;;;10.31;56.47
61537;BME280;48695;53.480;-6.300;2023-02-28T01:30:02;103129.09;;;10.31;56.22
61537;BME280;48695;53.480;-6.300;2023-02-28T01:32:28;103127.34;;;10.30;56.76
61537;BME280;48695;53.480;-6.300;2023-02-28T01:34:53;103099.22;;;10.17;56.32
61537;BME280;48695;53.480;-6.300;2023-02-28T01:37:19;103119.41;;;10.25;56.65
61537;BME280;48695;53.480;-6.300;2023-02-28T01:39:44;103129.06;;;10.29;56.61
61537;BME280;48695;53.480;-6.300;2023-02-28T01:42:10;103134.25;;;10.28;56.81
61537;BME280;48695;53.480;-6.300;2023-02-28T01:47:39;103125.59;;;10.30;56.56
61537;BME280;48695;53.480;-6.300;2023-02-28T01:50:15;103123.88;;;10.31;56.51
61537;BME280;48695;53.480;-6.300;2023-02-28T01:52:42;103129.03;;;10.28;56.65
61537;BME280;48695;53.480;-6.300;2023-02-28T01:55:10;103115.75;;;10.17;56.78
61537;BME280;48695;53.480;-6.300;2023-02-28T01:57:43;103123.78;;;10.25;56.77
61537;BME280;48695;53.480;-6.300;2023-02-28T02:00:14;103130.78;;;10.29;57.07
61537;BME280;48695;53.480;-6.300;2023-02-28T02:02:43;103125.41;;;10.23;57.32
61537;BME280;48695;53.480;-6.300;2023-02-28T02:05:14;103134.25;;;10.28;56.87
61537;BME280;48695;53.480;-6.300;2023-02-28T02:07:42;103107.94;;;10.19;57.40
61537;BME280;48695;53.480;-6.300;2023-02-28T02:10:16;103122.94;;;10.29;56.58
61537;BME280;48695;53.480;-6.300;2023-02-28T02:13:05;103129.03;;;10.28;56.27
61537;BME280;48695;53.480;-6.300;2023-02-28T02:29:06;103131.69;;;10.29;57.10
61537;BME280;48695;53.480;-6.300;2023-02-28T02:32:02;103127.34;;;10.30;57.38
61537;BME280;48695;53.480;-6.300;2023-02-28T02:35:42;103102.69;;;10.16;57.01
61537;BME280;48695;53.480;-6.300;2023-02-28T02:38:04;103126.47;;;10.31;56.84
61537;BME280;48695;53.480;-6.300;2023-02-28T02:43:58;103129.91;;;10.28;57.42
61537;BME280;48695;53.480;-6.300;2023-02-28T02:46:41;103126.47;;;10.31;57.50
61537;BME280;48695;53.480;-6.300;2023-02-28T02:49:12;103128.16;;;10.27;58.06
61537;BME280;48695;53.480;-6.300;2023-02-28T02:51:40;103126.28;;;10.23;58.38
61537;BME280;48695;53.480;-6.300;2023-02-28T02:54:13;103132.50;;;10.27;58.20
61537;BME280;48695;53.480;-6.300;2023-02-28T02:56:43;103122.88;;;10.24;58.27
61537;BME280;48695;53.480;-6.300;2023-02-28T02:59:12;103121.97;;;10.24;57.91
61537;BME280;48695;53.480;-6.300;2023-02-28T03:01:40;103123.78;;;10.25;57.87
61537;BME280;48695;53.480;-6.300;2023-02-28T03:04:13;103128.13;;;10.26;58.16
61537;BME280;48695;53.480;-6.300;2023-02-28T03:06:41;103123.66;;;10.22;58.38
61537;BME280;48695;53.480;-6.300;2023-02-28T03:09:06;103109.59;;;10.13;58.67
61537;BME280;48695;53.480;-6.300;2023-02-28T03:11:32;103105.13;;;10.08;58.49
61537;BME280;48695;53.480;-6.300;2023-02-28T03:14:30;103125.53;;;10.26;57.79
61537;BME280;48695;53.480;-6.300;2023-02-28T03:20:02;103124.66;;;10.25;57.84
61537;BME280;48695;53.480;-6.300;2023-02-28T03:28:08;103126.38;;;10.25;58.00
61537;BME280;48695;53.480;-6.300;2023-02-28T03:30:49;103130.66;;;10.23;58.17
61537;BME280;48695;53.480;-6.300;2023-02-28T03:33:31;103134.22;;;10.25;57.71
61537;BME280;48695;53.480;-6.300;2023-02-28T03:36:02;103122.81;;;10.23;58.25
61537;BME280;48695;53.480;-6.300;2023-02-28T03:41:05;103123.66;;;10.20;58.39
61537;BME280;48695;53.480;-6.300;2023-02-28T03:43:35;103139.44;;;10.25;58.43
61537;BME280;48695;53.480;-6.300;2023-02-28T03:46:05;103137.66;;;10.24;59.00
61537;BME280;48695;53.480;-6.300;2023-02-28T03:48:40;103136.75;;;10.23;58.77
61537;BME280;48695;53.480;-6.300;2023-02-28T03:51:11;103140.31;;;10.25;59.00
61537;BME280;48695;53.480;-6.300;2023-02-28T03:53:44;103139.44;;;10.25;59.09
61537;BME280;48695;53.480;-6.300;2023-02-28T03:58:58;103135.03;;;10.24;58.66
61537;BME280;48695;53.480;-6.300;2023-02-28T04:01:38;103130.78;;;10.29;59.09
61537;BME280;48695;53.480;-6.300;2023-02-28T04:04:07;103120.97;;;10.17;58.78
61537;BME280;48695;53.480;-6.300;2023-02-28T04:06:33;103135.13;;;10.28;58.62
61537;BME280;48695;53.480;-6.300;2023-02-28T04:09:00;103146.44;;;10.29;58.26
61537;BME280;48695;53.480;-6.300;2023-02-28T04:11:40;103140.41;;;10.31;57.53
61537;BME280;48695;53.480;-6.300;2023-02-28T04:14:07;103122.72;;;10.18;57.82
61537;BME280;48695;53.480;-6.300;2023-02-28T04:16:35;103146.44;;;10.29;58.07
61537;BME280;48695;53.480;-6.300;2023-02-28T04:19:03;103149.06;;;10.29;58.18
61537;BME280;48695;53.480;-6.300;2023-02-28T04:21:31;103147.31;;;10.28;58.61
61537;BME280;48695;53.480;-6.300;2023-02-28T04:23:57;103160.38;;;10.28;58.82
61537;BME280;48695;53.480;-6.300;2023-02-28T04:26:28;103149.91;;;10.28;58.62
61537;BME280;48695;53.480;-6.300;2023-02-28T04:28:55;103156.84;;;10.26;58.43
61537;BME280;48695;53.480;-6.300;2023-02-28T04:31:20;103159.47;;;10.26;58.83
61537;BME280;48695;53.480;-6.300;2023-02-28T04:33:46;103162.09;;;10.26;59.13
61537;BME280;48695;53.480;-6.300;2023-02-28T04:36:11;103130.41;;;10.09;58.84
61537;BME280;48695;53.480;-6.300;2023-02-28T04:38:38;103160.31;;;10.25;59.28
61537;BME280;48695;53.480;-6.300;2023-02-28T04:41:05;103154.94;;;10.19;59.28
61537;BME280;48695;53.480;-6.300;2023-02-28T04:43:31;103158.47;;;10.21;59.46
61537;BME280;48695;53.480;-6.300;2023-02-28T04:46:00;103167.28;;;10.24;59.54
61537;BME280;48695;53.480;-6.300;2023-02-28T04:48:27;103167.28;;;10.24;59.51
61537;BME280;48695;53.480;-6.300;2023-02-28T04:50:53;103167.19;;;10.23;59.18
61537;BME280;48695;53.480;-6.300;2023-02-28T04:53:19;103174.22;;;10.24;59.57
61537;BME280;48695;53.480;-6.300;2023-02-28T04:55:45;103174.22;;;10.24;59.65
61537;BME280;48695;53.480;-6.300;2023-02-28T04:58:12;103175.91;;;10.23;59.68
61537;BME280;48695;53.480;-6.300;2023-02-28T05:00:37;103170.78;;;10.25;59.77
61537;BME280;48695;53.480;-6.300;2023-02-28T05:03:03;103173.31;;;10.23;59.17
61537;BME280;48695;53.480;-6.300;2023-02-28T05:05:28;103176.75;;;10.22;59.74
61537;BME280;48695;53.480;-6.300;2023-02-28T05:07:54;103157.50;;;10.16;59.65
61537;BME280;48695;53.480;-6.300;2023-02-28T05:10:21;103165.34;;;10.16;59.29
61537;BME280;48695;53.480;-6.300;2023-02-28T05:12:46;103168.00;;;10.19;59.77
61537;BME280;48695;53.480;-6.300;2023-02-28T05:15:14;103176.72;;;10.19;59.44
61537;BME280;48695;53.480;-6.300;2023-02-28T05:17:40;103165.28;;;10.12;59.42
61537;BME280;48695;53.480;-6.300;2023-02-28T05:20:06;103163.59;;;10.14;59.82
61537;BME280;48695;53.480;-6.300;2023-02-28T05:22:32;103144.16;;;10.00;59.15
61537;BME280;48695;53.480;-6.300;2023-02-28T05:24:57;103163.44;;;10.08;59.74
61537;BME280;48695;53.480;-6.300;2023-02-28T05:27:23;103168.63;;;10.05;59.31
61537;BME280;48695;53.480;-6.300;2023-02-28T05:29:48;103172.03;;;10.01;59.50
61537;BME280;48695;53.480;-6.300;2023-02-28T05:32:14;103172.81;;;9.97;59.58
61537;BME280;48695;53.480;-6.300;2023-02-28T05:34:40;103177.06;;;9.92;59.73
61537;BME280;48695;53.480;-6.300;2023-02-28T05:37:11;103185.75;;;9.91;59.82
61537;BME280;48695;53.480;-6.300;2023-02-28T05:39:37;103183.88;;;9.84;59.71
61537;BME280;48695;53.480;-6.300;2023-02-28T05:42:02;103182.91;;;9.79;59.70
61537;BME280;48695;53.480;-6.300;2023-02-28T05:44:28;103134.38;;;9.46;59.54
61537;BME280;48695;53.480;-6.300;2023-02-28T05:46:53;103184.47;;;9.71;59.73
61537;BME280;48695;53.480;-6.300;2023-02-28T05:49:19;103185.22;;;9.65;59.95
61537;BME280;48695;53.480;-6.300;2023-02-28T05:51:44;103193.03;;;9.64;59.62
61537;BME280;48695;53.480;-6.300;2023-02-28T05:54:10;103186.84;;;9.58;59.55
61537;BME280;48695;53.480;-6.300;2023-02-28T05:56:35;103187.66;;;9.57;59.67
61537;BME280;48695;53.480;-6.300;2023-02-28T05:59:02;103193.69;;;9.53;59.99
61537;BME280;48695;53.480;-6.300;2023-02-28T06:01:36;103205.78;;;9.51;59.43
61537;BME280;48695;53.480;-6.300;2023-02-28T06:04:03;103210.88;;;9.45;59.86
61537;BME280;48695;53.480;-6.300;2023-02-28T06:06:29;103168.56;;;9.18;60.08
61537;BME280;48695;53.480;-6.300;2023-02-28T06:08:55;103207.19;;;9.37;60.18
61537;BME280;48695;53.480;-6.300;2023-02-28T06:11:21;103200.19;;;9.33;60.17
61537;BME280;48695;53.480;-6.300;2023-02-28T06:13:46;103208.91;;;9.35;60.37
61537;BME280;48695;53.480;-6.300;2023-02-28T06:16:12;103209.75;;;9.34;60.24
61537;BME280;48695;53.480;-6.300;2023-02-28T06:18:38;103210.63;;;9.33;60.23
61537;BME280;48695;53.480;-6.300;2023-02-28T06:21:04;103200.88;;;9.26;60.07
61537;BME280;48695;53.480;-6.300;2023-02-28T06:23:30;103214.03;;;9.32;60.32
61537;BME280;48695;53.480;-6.300;2023-02-28T06:25:55;103212.28;;;9.31;59.90
61537;BME280;48695;53.480;-6.300;2023-02-28T06:28:24;103190.22;;;9.17;60.04
61537;BME280;48695;53.480;-6.300;2023-02-28T06:30:51;103206.94;;;9.25;59.72
61537;BME280;48695;53.480;-6.300;2023-02-28T06:33:16;103219.22;;;9.29;59.78
61537;BME280;48695;53.480;-6.300;2023-02-28T06:35:46;103197.31;;;9.22;59.98
61537;BME280;48695;53.480;-6.300;2023-02-28T06:38:12;103191.03;;;9.13;60.15
61537;BME280;48695;53.480;-6.300;2023-02-28T06:40:37;103205.09;;;9.21;60.00
61537;BME280;48695;53.480;-6.300;2023-02-28T06:43:03;103208.56;;;9.20;59.88
61537;BME280;48695;53.480;-6.300;2023-02-28T06:45:29;103226.09;;;9.27;59.97
61537;BME280;48695;53.480;-6.300;2023-02-28T06:47:54;103237.47;;;9.29;60.17
61537;BME280;48695;53.480;-6.300;2023-02-28T06:50:20;103202.28;;;9.12;60.21
61537;BME280;48695;53.480;-6.300;2023-02-28T06:52:46;103231.25;;;9.24;60.33
61537;BME280;48695;53.480;-6.300;2023-02-28T06:55:11;103234.75;;;9.26;60.61
61537;BME280;48695;53.480;-6.300;2023-02-28T06:57:37;103248.66;;;9.25;61.04
61537;BME280;48695;53.480;-6.300;2023-02-28T07:00:09;103226.66;;;9.14;60.49
61537;BME280;48695;53.480;-6.300;2023-02-28T07:02:35;103186.75;;;8.80;61.07
61537;BME280;48695;53.480;-6.300;2023-02-28T07:05:01;103247.56;;;9.17;60.89
61537;BME280;48695;53.480;-6.300;2023-02-28T07:07:26;103258.94;;;9.19;61.21
61537;BME280;48695;53.480;-6.300;2023-02-28T07:09:52;103247.53;;;9.14;61.34
61537;BME280;48695;53.480;-6.300;2023-02-28T07:12:17;103257.09;;;9.15;61.19
61537;BME280;48695;53.480;-6.300;2023-02-28T07:14:42;103267.63;;;9.18;61.16
61537;BME280;48695;53.480;-6.300;2023-02-28T07:17:09;103275.44;;;9.18;61.33
61537;BME280;48695;53.480;-6.300;2023-02-28T07:19:40;103277.13;;;9.17;61.19
61537;BME280;48695;53.480;-6.300;2023-02-28T07:22:06;103288.53;;;9.21;60.85
61537;BME280;48695;53.480;-6.300;2023-02-28T07:24:32;103245.53;;;9.03;60.96
61537;BME280;48695;53.480;-6.300;2023-02-28T07:26:57;103273.72;;;9.18;60.99
61537;BME280;48695;53.480;-6.300;2023-02-28T07:29:24;103276.34;;;9.20;61.21
61537;BME280;48695;53.480;-6.300;2023-02-28T07:31:50;103272.88;;;9.21;61.44
61537;BME280;48695;53.480;-6.300;2023-02-28T07:34:18;103278.94;;;9.20;61.14
61537;BME280;48695;53.480;-6.300;2023-02-28T07:36:44;103272.84;;;9.18;61.31
61537;BME280;48695;53.480;-6.300;2023-02-28T07:39:09;103260.47;;;9.10;61.02
61537;BME280;48695;53.480;-6.300;2023-02-28T07:41:35;103266.72;;;9.17;60.96
61537;BME280;48695;53.480;-6.300;2023-02-28T07:44:04;103266.69;;;9.16;61.16
61537;BME280;48695;53.480;-6.300;2023-02-28T07:46:30;103283.41;;;9.24;61.37
61537;BME280;48695;53.480;-6.300;2023-02-28T07:49:00;103261.28;;;9.08;60.71
61537;BME280;48695;53.480;-6.300;2023-02-28T07:51:27;103286.13;;;9.28;59.60
61537;BME280;48695;53.480;-6.300;2023-02-28T07:53:53;103286.91;;;9.26;60.66
61537;BME280;48695;53.480;-6.300;2023-02-28T07:56:18;103283.41;;;9.24;60.55
61537;BME280;48695;53.480;-6.300;2023-02-28T07:58:44;103241.81;;;8.94;60.70
61537;BME280;48695;53.480;-6.300;2023-02-28T08:01:10;103291.22;;;9.24;60.81
61537;BME280;48695;53.480;-6.300;2023-02-28T08:03:37;103284.06;;;9.17;60.72
61537;BME280;48695;53.480;-6.300;2023-02-28T08:06:04;103298.16;;;9.23;60.64
61537;BME280;48695;53.480;-6.300;2023-02-28T08:08:30;103291.16;;;9.22;60.77
61537;BME280;48695;53.480;-6.300;2023-02-28T08:10:59;103292.06;;;9.23;60.68
61537;BME280;48695;53.480;-6.300;2023-02-28T08:13:25;103302.56;;;9.26;60.69
61537;BME280;48695;53.480;-6.300;2023-02-28T08:15:52;103284.13;;;9.18;60.60
61537;BME280;48695;53.480;-6.300;2023-02-28T08:18:18;103293.78;;;9.22;60.74
61537;BME280;48695;53.480;-6.300;2023-02-28T08:20:43;103315.72;;;9.30;60.72
61537;BME280;48695;53.480;-6.300;2023-02-28T08:23:08;103299.09;;;9.27;60.75
61537;BME280;48695;53.480;-6.300;2023-02-28T08:25:34;103311.47;;;9.34;60.73
61537;BME280;48695;53.480;-6.300;2023-02-28T08:27:59;103304.41;;;9.30;60.74
61537;BME280;48695;53.480;-6.300;2023-02-28T08:30:25;103308.09;;;9.38;60.69
61537;BME280;48695;53.480;-6.300;2023-02-28T08:32:50;103279.94;;;9.25;60.63
61537;BME280;48695;53.480;-6.300;2023-02-28T08:35:15;103302.88;;;9.38;60.25
61537;BME280;48695;53.480;-6.300;2023-02-28T08:37:41;103288.75;;;9.30;60.65
61537;BME280;48695;53.480;-6.300;2023-02-28T08:40:07;103291.50;;;9.36;60.41
61537;BME280;48695;53.480;-6.300;2023-02-28T08:42:33;103310.97;;;9.50;60.45
61537;BME280;48695;53.480;-6.300;2023-02-28T08:44:58;103297.78;;;9.44;60.19
61537;BME280;48695;53.480;-6.300;2023-02-28T08:47:23;103303.25;;;9.53;60.18
61537;BME280;48695;53.480;-6.300;2023-02-28T08:49:49;103301.53;;;9.55;60.07
61537;BME280;48695;53.480;-6.300;2023-02-28T08:52:14;103306.75;;;9.55;59.77
61537;BME280;48695;53.480;-6.300;2023-02-28T08:54:40;103280.44;;;9.46;59.91
61537;BME280;48695;53.480;-6.300;2023-02-28T08:57:05;103285.69;;;9.48;60.05
61537;BME280;48695;53.480;-6.300;2023-02-28T08:59:31;103317.41;;;9.65;59.97
61537;BME280;48695;53.480;-6.300;2023-02-28T09:01:56;103312.22;;;9.66;60.08
61537;BME280;48695;53.480;-6.300;2023-02-28T09:04:22;103304.28;;;9.61;59.99
61537;BME280;48695;53.480;-6.300;2023-02-28T09:06:47;103304.41;;;9.68;59.68
61537;BME280;48695;53.480;-6.300;2023-02-28T09:09:14;103312.41;;;9.74;59.95
61537;BME280;48695;53.480;-6.300;2023-02-28T09:11:40;103310.69;;;9.76;59.83
61537;BME280;48695;53.480;-6.300;2023-02-28T09:14:05;103316.00;;;9.79;59.65
61537;BME280;48695;53.480;-6.300;2023-02-28T09:16:32;103324.81;;;9.84;59.37
61537;BME280;48695;53.480;-6.300;2023-02-28T09:18:58;103325.72;;;9.86;58.98
61537;BME280;48695;53.480;-6.300;2023-02-28T09:21:23;103300.16;;;9.73;58.80
61537;BME280;48695;53.480;-6.300;2023-02-28T09:23:50;103329.31;;;9.91;58.74
61537;BME280;48695;53.480;-6.300;2023-02-28T09:28:41;103327.59;;;9.93;58.36
61537;BME280;48695;53.480;-6.300;2023-02-28T09:31:06;103333.75;;;9.95;58.46
61537;BME280;48695;53.480;-6.300;2023-02-28T09:33:31;103332.88;;;9.95;58.14
61537;BME280;48695;53.480;-6.300;2023-02-28T09:35:59;103337.34;;;10.00;58.38
61537;BME280;48695;53.480;-6.300;2023-02-28T09:38:25;103347.81;;;10.02;58.21
61537;BME280;48695;53.480;-6.300;2023-02-28T09:41:16;103340.09;;;10.08;57.95
61537;BME280;48695;53.480;-6.300;2023-02-28T09:43:47;103334.94;;;10.09;58.12
61537;BME280;48695;53.480;-6.300;2023-02-28T09:46:18;103342.78;;;10.09;58.00
61537;BME280;48695;53.480;-6.300;2023-02-28T09:48:48;103318.22;;;10.01;58.40
61537;BME280;48695;53.480;-6.300;2023-02-28T09:54:20;103341.34;;;10.24;57.86
61537;BME280;48695;53.480;-6.300;2023-02-28T10:02:09;103339.84;;;10.35;57.89
61537;BME280;48695;53.480;-6.300;2023-02-28T10:04:43;103332.06;;;10.38;58.06
61537;BME280;48695;53.480;-6.300;2023-02-28T10:07:48;103335.72;;;10.46;58.13
61537;BME280;48695;53.480;-6.300;2023-02-28T10:10:22;103334.94;;;10.50;57.68
61537;BME280;48695;53.480;-6.300;2023-02-28T10:12:52;103323.72;;;10.54;57.72
61537;BME280;48695;53.480;-6.300;2023-02-28T10:15:21;103331.69;;;10.63;57.96
61537;BME280;48695;53.480;-6.300;2023-02-28T10:17:53;103340.56;;;10.72;58.00
61537;BME280;48695;53.480;-6.300;2023-02-28T10:20:21;103331.19;;;10.83;58.12
61537;BME280;48695;53.480;-6.300;2023-02-28T10:23:13;103328.91;;;11.01;57.59
61537;BME280;48695;53.480;-6.300;2023-02-28T10:25:45;103332.66;;;11.15;57.45
61537;BME280;48695;53.480;-6.300;2023-02-28T10:28:16;103338.09;;;11.28;56.85
61537;BME280;48695;53.480;-6.300;2023-02-28T10:30:50;103333.09;;;11.41;57.00
61537;BME280;48695;53.480;-6.300;2023-02-28T10:33:28;103342.88;;;11.55;56.37
61537;BME280;48695;53.480;-6.300;2023-02-28T10:35:54;103337.72;;;11.59;56.51
61537;BME280;48695;53.480;-6.300;2023-02-28T10:38:26;103330.91;;;11.70;56.35
61537;BME280;48695;53.480;-6.300;2023-02-28T10:41:03;103337.22;;;11.83;56.17
61537;BME280;48695;53.480;-6.300;2023-02-28T10:43:29;103335.56;;;11.90;56.00
61537;BME280;48695;53.480;-6.300;2023-02-28T10:45:59;103335.75;;;12.02;56.26
61537;BME280;48695;53.480;-6.300;2023-02-28T10:48:50;103331.59;;;12.18;56.30
61537;BME280;48695;53.480;-6.300;2023-02-28T10:51:24;103330.75;;;12.20;55.38
61537;BME280;48695;53.480;-6.300;2023-02-28T10:53:51;103336.09;;;12.27;54.76
61537;BME280;48695;53.480;-6.300;2023-02-28T10:56:22;103334.34;;;12.29;55.09
61537;BME280;48695;53.480;-6.300;2023-02-28T11:01:46;103327.56;;;12.46;55.38
61537;BME280;48695;53.480;-6.300;2023-02-28T11:07:03;103326.94;;;12.68;54.36
61537;BME280;48695;53.480;-6.300;2023-02-28T11:09:38;103329.69;;;12.81;54.17
61537;BME280;48695;53.480;-6.300;2023-02-28T11:12:10;103335.84;;;12.87;53.30
61537;BME280;48695;53.480;-6.300;2023-02-28T11:14:49;103329.81;;;12.93;52.83
61537;BME280;48695;53.480;-6.300;2023-02-28T11:17:27;103322.88;;;13.01;53.33
61537;BME280;48695;53.480;-6.300;2023-02-28T11:19:56;103325.50;;;13.01;53.10
61537;BME280;48695;53.480;-6.300;2023-02-28T11:22:25;103321.19;;;13.06;52.68
61537;BME280;48695;53.480;-6.300;2023-02-28T11:24:55;103310.69;;;13.06;52.09
61537;BME280;48695;53.480;-6.300;2023-02-28T11:29:58;103323.88;;;13.15;51.90
61537;BME280;48695;53.480;-6.300;2023-02-28T11:32:25;103301.06;;;13.07;51.39
61537;BME280;48695;53.480;-6.300;2023-02-28T11:35:15;103327.50;;;13.23;52.60
61537;BME280;48695;53.480;-6.300;2023-02-28T11:37:42;103323.88;;;13.15;51.84
61537;BME280;48695;53.480;-6.300;2023-02-28T11:40:43;103321.31;;;13.18;52.54
61537;BME280;48695;53.480;-6.300;2023-02-28T11:51:59;103322.84;;;12.95;51.63
61537;BME280;48695;53.480;-6.300;2023-02-28T12:00:18;103324.38;;;12.75;51.00
61537;BME280;48695;53.480;-6.300;2023-02-28T12:05:24;103326.03;;;12.63;52.03
61537;BME280;48695;53.480;-6.300;2023-02-28T12:10:32;103328.44;;;12.46;51.70
61537;BME280;48695;53.480;-6.300;2023-02-28T12:26:42;103312.69;;;12.43;52.33
61537;BME280;48695;53.480;-6.300;2023-02-28T12:32:05;103312.81;;;12.54;52.04
61537;BME280;48695;53.480;-6.300;2023-02-28T12:34:34;103310.28;;;12.63;51.79
61537;BME280;48695;53.480;-6.300;2023-02-28T12:37:06;103313.03;;;12.76;51.98
61537;BME280;48695;53.480;-6.300;2023-02-28T12:39:37;103292.09;;;12.80;51.12
61537;BME280;48695;53.480;-6.300;2023-02-28T12:42:13;103280.88;;;12.95;51.72
61537;BME280;48695;53.480;-6.300;2023-02-28T12:44:49;103301.22;;;13.22;51.04
61537;BME280;48695;53.480;-6.300;2023-02-28T12:47:18;103260.00;;;13.10;50.44
61537;BME280;48695;53.480;-6.300;2023-02-28T12:49:59;103277.72;;;13.36;51.06
61537;BME280;48695;53.480;-6.300;2023-02-28T12:55:30;103292.78;;;13.67;50.09
61537;BME280;48695;53.480;-6.300;2023-02-28T12:58:11;103290.19;;;13.73;50.26
61537;BME280;48695;53.480;-6.300;2023-02-28T13:00:48;103285.84;;;13.77;50.08
61537;BME280;48695;53.480;-6.300;2023-02-28T13:09:25;103286.75;;;13.81;49.45
61537;BME280;48695;53.480;-6.300;2023-02-28T13:11:52;103275.31;;;13.69;48.65
61537;BME280;48695;53.480;-6.300;2023-02-28T13:17:17;103283.19;;;13.69;48.19
61537;BME280;48695;53.480;-6.300;2023-02-28T13:22:39;103284.84;;;13.55;48.64
61537;BME280;48695;53.480;-6.300;2023-02-28T13:28:11;103273.34;;;13.33;48.41
61537;BME280;48695;53.480;-6.300;2023-02-28T13:33:28;103270.53;;;13.16;48.79
61537;BME280;48695;53.480;-6.300;2023-02-28T13:38:54;103261.63;;;12.96;48.39
61537;BME280;48695;53.480;-6.300;2023-02-28T13:41:45;103259.84;;;12.89;49.40
61537;BME280;48695;53.480;-6.300;2023-02-28T13:44:12;103255.38;;;12.79;49.15
61537;BME280;48695;53.480;-6.300;2023-02-28T13:57:32;103236.84;;;12.60;49.71
61537;BME280;48695;53.480;-6.300;2023-02-28T14:03:24;103240.28;;;12.53;49.87
61537;BME280;48695;53.480;-6.300;2023-02-28T14:06:14;103241.13;;;12.51;49.80
61537;BME280;48695;53.480;-6.300;2023-02-28T14:08:52;103240.22;;;12.47;49.88
61537;BME280;48695;53.480;-6.300;2023-02-28T14:11:36;103244.59;;;12.48;50.13
61537;BME280;48695;53.480;-6.300;2023-02-28T14:14:03;103243.69;;;12.43;49.49
61537;BME280;48695;53.480;-6.300;2023-02-28T14:16:45;103219.13;;;12.32;50.01
61537;BME280;48695;53.480;-6.300;2023-02-28T14:19:24;103235.81;;;12.43;49.59
61537;BME280;48695;53.480;-6.300;2023-02-28T14:25:08;103233.22;;;12.46;50.00
61537;BME280;48695;53.480;-6.300;2023-02-28T14:33:41;103229.84;;;12.59;49.81
61537;BME280;48695;53.480;-6.300;2023-02-28T14:36:06;103224.66;;;12.65;49.63
61537;BME280;48695;53.480;-6.300;2023-02-28T14:38:39;103228.19;;;12.70;49.67
61537;BME280;48695;53.480;-6.300;2023-02-28T14:41:14;103233.50;;;12.75;49.81
61537;BME280;48695;53.480;-6.300;2023-02-28T14:43:49;103235.28;;;12.81;49.80
61537;BME280;48695;53.480;-6.300;2023-02-28T14:46:15;103235.28;;;12.81;48.95
61537;BME280;48695;53.480;-6.300;2023-02-28T14:48:45;103222.13;;;12.75;49.08
61537;BME280;48695;53.480;-6.300;2023-02-28T14:51:12;103215.94;;;12.66;49.41
61537;BME280;48695;53.480;-6.300;2023-02-28T14:53:43;103235.28;;;12.81;49.10
61537;BME280;48695;53.480;-6.300;2023-02-28T14:56:21;103212.47;;;12.70;49.06
61537;BME280;48695;53.480;-6.300;2023-02-28T14:58:52;103232.66;;;12.79;49.20
61537;BME280;48695;53.480;-6.300;2023-02-28T15:01:20;103233.47;;;12.73;49.21
61537;BME280;48695;53.480;-6.300;2023-02-28T15:03:47;103217.63;;;12.61;48.64
61537;BME280;48695;53.480;-6.300;2023-02-28T15:06:16;103232.53;;;12.67;49.02
61537;BME280;48695;53.480;-6.300;2023-02-28T15:08:43;103228.09;;;12.58;49.03